createdAt,value
2022-10-19T00:00:30.362Z,69.84
2022-10-19T00:01:30.348Z,75.54
2022-10-19T00:02:30.444Z,72.10
2022-10-19T00:03:30.312Z,72.41
2022-10-19T00:04:30.322Z,73.76
2022-10-19T00:05:30.277Z,72.40
2022-10-19T00:06:30.256Z,71.59
2022-10-19T00:07:30.240Z,73.31
2022-10-19T00:08:30.222Z,74.81
2022-10-19T00:09:30.229Z,75.27
2022-10-19T00:10:30.184Z,72.57
2022-10-19T00:11:30.171Z,72.86
2022-10-19T00:12:30.155Z,73.54
2022-10-19T00:13:30.133Z,73.12
2022-10-19T00:14:30.142Z,73.66
2022-10-19T00:15:30.099Z,76.05
2022-10-19T00:16:30.081Z,72.13
2022-10-19T00:17:30.151Z,73.72
2022-10-19T00:18:30.041Z,70.88
2022-10-19T00:19:30.052Z,72.68
2022-10-19T00:20:30.015Z,74.79
2022-10-19T00:21:29.991Z,74.19
2022-10-19T00:22:30.123Z,71.93
2022-10-19T00:23:29.954Z,73.63
2022-10-19T00:24:29.967Z,72.37
2022-10-19T00:25:29.921Z,69.96
2022-10-19T00:26:29.901Z,70.33
2022-10-19T00:27:29.884Z,71.21
2022-10-19T00:28:29.904Z,72.16
2022-10-19T00:29:29.873Z,71.23
2022-10-19T00:30:29.835Z,72.65
2022-10-19T00:31:29.813Z,72.70
2022-10-19T00:32:29.952Z,73.80
2022-10-19T00:33:29.781Z,72.61
2022-10-19T00:34:29.789Z,71.96
2022-10-19T00:35:29.742Z,73.77
2022-10-19T00:36:29.729Z,74.08
2022-10-19T00:37:29.708Z,73.64
2022-10-19T00:38:29.693Z,71.03
2022-10-19T00:39:29.707Z,72.89
2022-10-19T00:40:29.664Z,71.75
2022-10-19T00:41:29.642Z,71.93
2022-10-19T00:42:29.624Z,69.95
2022-10-19T00:43:29.606Z,69.30
2022-10-19T00:44:29.613Z,73.33
2022-10-19T00:45:29.574Z,70.64
2022-10-19T00:46:29.559Z,69.30
2022-10-19T00:47:29.539Z,73.46
2022-10-19T00:48:29.518Z,70.25
2022-10-19T00:49:29.530Z,73.09
2022-10-19T00:50:29.487Z,71.26
2022-10-19T00:51:29.465Z,73.35
2022-10-19T00:52:29.452Z,71.98
2022-10-19T00:53:29.435Z,70.23
2022-10-19T00:54:29.446Z,74.11
2022-10-19T00:55:29.398Z,74.08
2022-10-19T00:56:29.382Z,72.09
2022-10-19T00:57:29.364Z,70.47
2022-10-19T00:58:29.345Z,73.61
2022-10-19T00:59:29.359Z,72.97
2022-10-19T01:00:29.312Z,73.30
2022-10-19T01:01:29.365Z,72.59
2022-10-19T01:02:29.282Z,71.36
2022-10-19T01:03:29.261Z,69.20
2022-10-19T01:04:29.270Z,72.75
2022-10-19T01:05:29.228Z,72.17
2022-10-19T01:06:29.213Z,70.46
2022-10-19T01:07:29.196Z,74.88
2022-10-19T01:08:29.176Z,74.31
2022-10-19T01:09:29.185Z,74.75
2022-10-19T01:10:29.144Z,72.04
2022-10-19T01:11:29.121Z,74.27
2022-10-19T01:12:29.104Z,75.29
2022-10-19T01:13:29.077Z,72.34
2022-10-19T01:14:30.094Z,67.35
2022-10-19T01:15:29.052Z,74.00
2022-10-19T01:16:29.038Z,72.10
2022-10-19T01:17:29.021Z,73.48
2022-10-19T01:18:29.000Z,73.45
2022-10-19T01:19:29.013Z,73.58
2022-10-19T01:20:28.966Z,71.06
2022-10-19T01:21:28.948Z,76.16
2022-10-19T01:22:28.930Z,73.85
2022-10-19T01:23:28.912Z,72.30
2022-10-19T01:24:28.921Z,71.86
2022-10-19T01:25:28.876Z,74.07
2022-10-19T01:26:28.864Z,72.53
2022-10-19T01:27:28.848Z,69.89
2022-10-19T01:28:28.879Z,72.13
2022-10-19T01:29:28.837Z,73.16
2022-10-19T01:30:28.797Z,69.57
2022-10-19T01:31:28.782Z,70.37
2022-10-19T01:32:28.759Z,72.20
2022-10-19T01:33:28.749Z,73.98
2022-10-19T01:34:28.754Z,70.58
2022-10-19T01:35:28.710Z,71.23
2022-10-19T01:36:28.689Z,71.22
2022-10-19T01:37:28.673Z,71.14
2022-10-19T01:38:28.654Z,74.04
2022-10-19T01:39:28.666Z,73.48
2022-10-19T01:40:28.621Z,72.46
2022-10-19T01:41:28.605Z,72.01
2022-10-19T01:42:28.587Z,72.15
2022-10-19T01:43:28.568Z,71.69
2022-10-19T01:44:28.578Z,71.84
2022-10-19T01:45:28.527Z,71.88
2022-10-19T01:46:28.515Z,70.11
2022-10-19T01:47:28.504Z,71.54
2022-10-19T01:48:28.483Z,73.42
2022-10-19T01:49:28.489Z,72.66
2022-10-19T01:50:28.447Z,71.09
2022-10-19T01:51:28.428Z,74.27
2022-10-19T01:52:28.409Z,71.96
2022-10-19T01:53:28.394Z,72.70
2022-10-19T01:54:28.399Z,72.84
2022-10-19T01:55:28.355Z,72.60
2022-10-19T01:56:28.341Z,70.89
2022-10-19T01:57:28.324Z,71.37
2022-10-19T01:58:28.307Z,71.01
2022-10-19T01:59:28.319Z,75.25
2022-10-19T02:00:28.278Z,73.80
2022-10-19T02:01:28.257Z,76.02
2022-10-19T02:02:28.242Z,73.48
2022-10-19T02:03:28.237Z,73.53
2022-10-19T02:04:28.238Z,74.76
2022-10-19T02:05:28.205Z,73.88
2022-10-19T02:06:28.168Z,75.63
2022-10-19T02:07:28.157Z,73.87
2022-10-19T02:08:28.140Z,75.55
2022-10-19T02:09:28.146Z,70.30
2022-10-19T02:10:28.103Z,72.15
2022-10-19T02:11:28.087Z,75.20
2022-10-19T02:12:28.066Z,75.52
2022-10-19T02:13:28.051Z,73.96
2022-10-19T02:14:28.055Z,75.06
2022-10-19T02:15:28.014Z,73.23
2022-10-19T02:16:27.995Z,72.61
2022-10-19T02:17:27.978Z,75.81
2022-10-19T02:18:27.972Z,74.23
2022-10-19T02:19:27.975Z,73.41
2022-10-19T02:20:27.927Z,72.76
2022-10-19T02:21:27.911Z,73.91
2022-10-19T02:22:27.887Z,76.71
2022-10-19T02:23:27.867Z,76.18
2022-10-19T02:24:27.883Z,73.58
2022-10-19T02:25:27.841Z,73.09
2022-10-19T02:26:27.823Z,75.42
2022-10-19T02:27:27.813Z,75.93
2022-10-19T02:28:27.794Z,75.40
2022-10-19T02:29:27.797Z,73.56
2022-10-19T02:30:27.754Z,74.14
2022-10-19T02:31:27.734Z,75.38
2022-10-19T02:32:27.714Z,72.93
2022-10-19T02:33:27.698Z,74.86
2022-10-19T02:34:27.713Z,73.22
2022-10-19T02:35:27.670Z,75.47
2022-10-19T02:36:27.647Z,74.81
2022-10-19T02:37:27.750Z,72.59
2022-10-19T02:38:27.615Z,74.95
2022-10-19T02:39:27.625Z,75.50
2022-10-19T02:40:27.579Z,73.94
2022-10-19T02:41:27.565Z,72.86
2022-10-19T02:42:27.542Z,74.33
2022-10-19T02:43:27.535Z,74.63
2022-10-19T02:44:27.533Z,74.14
2022-10-19T02:45:27.488Z,74.38
2022-10-19T02:46:27.496Z,75.42
2022-10-19T02:47:27.448Z,73.42
2022-10-19T02:48:27.436Z,73.52
2022-10-19T02:49:27.448Z,72.90
2022-10-19T02:50:27.395Z,74.35
2022-10-19T02:51:27.378Z,72.81
2022-10-19T02:52:27.363Z,74.31
2022-10-19T02:53:27.342Z,73.71
2022-10-19T02:54:27.354Z,75.77
2022-10-19T02:55:27.345Z,72.66
2022-10-19T02:56:27.286Z,75.89
2022-10-19T02:57:27.269Z,74.68
2022-10-19T02:58:27.252Z,75.32
2022-10-19T02:59:27.259Z,75.32
2022-10-19T03:00:27.222Z,75.44
2022-10-19T03:01:27.195Z,73.27
2022-10-19T03:02:27.184Z,74.45
2022-10-19T03:03:27.161Z,74.66
2022-10-19T03:04:27.171Z,75.49
2022-10-19T03:05:27.143Z,74.24
2022-10-19T03:06:27.101Z,75.14
2022-10-19T03:07:27.087Z,73.21
2022-10-19T03:08:27.070Z,74.14
2022-10-19T03:09:27.083Z,76.72
2022-10-19T03:10:27.031Z,76.67
2022-10-19T03:11:27.016Z,74.52
2022-10-19T03:12:26.997Z,74.78
2022-10-19T03:13:26.977Z,75.39
2022-10-19T03:14:26.987Z,74.60
2022-10-19T03:15:26.941Z,74.69
2022-10-19T03:16:26.927Z,75.95
2022-10-19T03:17:26.919Z,75.92
2022-10-19T03:18:26.886Z,76.59
2022-10-19T03:19:26.897Z,76.42
2022-10-19T03:20:26.849Z,72.86
2022-10-19T03:21:26.835Z,76.48
2022-10-19T03:22:26.816Z,76.42
2022-10-19T03:23:26.800Z,75.06
2022-10-19T03:24:26.806Z,75.70
2022-10-19T03:25:26.760Z,75.76
2022-10-19T03:26:26.741Z,76.81
2022-10-19T03:27:26.727Z,76.24
2022-10-19T03:28:26.745Z,74.86
2022-10-19T03:29:26.717Z,76.87
2022-10-19T03:30:26.671Z,75.73
2022-10-19T03:31:26.651Z,76.91
2022-10-19T03:32:26.629Z,76.21
2022-10-19T03:33:26.619Z,75.05
2022-10-19T03:34:26.625Z,74.79
2022-10-19T03:35:26.574Z,74.76
2022-10-19T03:36:26.559Z,76.79
2022-10-19T03:37:26.536Z,76.22
2022-10-19T03:38:26.520Z,73.21
2022-10-19T03:39:26.541Z,76.88
2022-10-19T03:40:26.491Z,76.18
2022-10-19T03:41:26.470Z,75.26
2022-10-19T03:42:26.455Z,75.99
2022-10-19T03:43:26.438Z,76.97
2022-10-19T03:44:26.437Z,78.46
2022-10-19T03:45:26.404Z,76.55
2022-10-19T03:46:26.376Z,77.57
2022-10-19T03:47:26.356Z,77.78
2022-10-19T03:48:26.343Z,76.14
2022-10-19T03:49:26.347Z,75.98
2022-10-19T03:50:26.307Z,75.83
2022-10-19T03:51:26.285Z,76.15
2022-10-19T03:52:26.269Z,75.97
2022-10-19T03:53:26.258Z,76.75
2022-10-19T03:54:27.476Z,76.27
2022-10-19T03:55:27.215Z,77.49
2022-10-19T03:56:26.205Z,75.93
2022-10-19T03:57:26.180Z,76.72
2022-10-19T03:58:26.163Z,76.38
2022-10-19T03:59:26.177Z,76.24
2022-10-19T04:00:26.131Z,74.82
2022-10-19T04:01:26.162Z,75.43
2022-10-19T04:02:26.087Z,76.80
2022-10-19T04:03:26.089Z,76.70
2022-10-19T04:04:27.086Z,74.42
2022-10-19T04:05:26.034Z,77.47
2022-10-19T04:06:26.031Z,77.23
2022-10-19T04:07:26.000Z,77.46
2022-10-19T04:08:25.983Z,75.12
2022-10-19T04:09:25.988Z,75.76
2022-10-19T04:10:25.949Z,76.94
2022-10-19T04:11:25.924Z,76.12
2022-10-19T04:12:25.912Z,77.50
2022-10-19T04:13:25.892Z,75.74
2022-10-19T04:14:32.225Z,75.27
2022-10-19T04:15:27.863Z,77.42
2022-10-19T04:16:25.841Z,75.73
2022-10-19T04:17:25.850Z,75.49
2022-10-19T04:18:25.806Z,76.99
2022-10-19T04:19:25.812Z,76.60
2022-10-19T04:20:25.773Z,77.65
2022-10-19T04:21:25.751Z,77.58
2022-10-19T04:22:25.731Z,77.06
2022-10-19T04:23:25.726Z,76.93
2022-10-19T04:24:25.724Z,77.01
2022-10-19T04:25:25.676Z,75.73
2022-10-19T04:26:25.656Z,77.63
2022-10-19T04:27:25.642Z,76.76
2022-10-19T04:28:25.742Z,75.49
2022-10-19T04:29:29.436Z,75.76
2022-10-19T04:30:26.586Z,77.19
2022-10-19T04:31:25.572Z,76.24
2022-10-19T04:32:25.563Z,77.38
2022-10-19T04:33:25.536Z,77.69
2022-10-19T04:34:25.558Z,77.09
2022-10-19T04:35:25.495Z,77.46
2022-10-19T04:36:25.478Z,75.80
2022-10-19T04:37:25.464Z,76.47
2022-10-19T04:38:25.443Z,76.92
2022-10-19T04:39:25.456Z,76.80
2022-10-19T04:40:25.405Z,77.10
2022-10-19T04:41:25.390Z,77.06
2022-10-19T04:42:25.372Z,76.46
2022-10-19T04:43:25.349Z,76.94
2022-10-19T04:44:25.382Z,75.97
2022-10-19T04:45:25.318Z,77.10
2022-10-19T04:46:25.294Z,76.77
2022-10-19T04:47:25.275Z,76.10
2022-10-19T04:48:25.259Z,76.39
2022-10-19T04:49:25.269Z,75.95
2022-10-19T04:50:25.225Z,76.60
2022-10-19T04:51:25.209Z,76.05
2022-10-19T04:52:25.187Z,75.96
2022-10-19T04:54:25.181Z,76.88
2022-10-19T04:55:25.137Z,76.92
2022-10-19T04:56:25.122Z,76.23
2022-10-19T04:57:25.101Z,76.63
2022-10-19T04:58:25.084Z,75.76
2022-10-19T04:59:25.090Z,76.59
2022-10-19T05:00:25.046Z,76.52
2022-10-19T05:01:25.053Z,77.54
2022-10-19T05:02:25.007Z,76.52
2022-10-19T05:03:24.990Z,76.52
2022-10-19T05:04:25.000Z,75.41
2022-10-19T05:05:24.960Z,77.12
2022-10-19T05:06:24.938Z,76.92
2022-10-19T05:07:24.917Z,77.27
2022-10-19T05:08:24.902Z,75.98
2022-10-19T05:09:24.916Z,75.46
2022-10-19T05:10:24.866Z,76.75
2022-10-19T05:11:24.848Z,76.98
2022-10-19T05:12:24.832Z,76.83
2022-10-19T05:13:24.810Z,77.10
2022-10-19T05:14:24.859Z,77.80
2022-10-19T05:15:24.779Z,75.77
2022-10-19T05:16:24.765Z,76.26
2022-10-19T05:17:24.741Z,76.85
2022-10-19T05:18:24.748Z,74.83
2022-10-19T05:19:24.731Z,76.17
2022-10-19T05:20:24.684Z,77.58
2022-10-19T05:21:24.670Z,77.34
2022-10-19T05:22:24.648Z,75.33
2022-10-19T05:23:24.653Z,76.38
2022-10-19T05:24:24.638Z,75.81
2022-10-19T05:25:24.591Z,75.47
2022-10-19T05:26:24.576Z,77.54
2022-10-19T05:27:24.559Z,77.16
2022-10-19T05:28:24.541Z,76.21
2022-10-19T05:29:24.544Z,76.63
2022-10-19T05:30:24.509Z,75.56
2022-10-19T05:31:24.479Z,77.38
2022-10-19T05:32:24.465Z,77.10
2022-10-19T05:33:24.446Z,77.17
2022-10-19T05:34:24.454Z,77.44
2022-10-19T05:35:24.440Z,77.30
2022-10-19T05:36:24.394Z,77.94
2022-10-19T05:37:24.379Z,76.14
2022-10-19T05:38:24.364Z,76.50
2022-10-19T05:39:24.340Z,75.31
2022-10-19T05:40:24.350Z,76.37
2022-10-19T05:41:24.305Z,77.56
2022-10-19T05:42:24.294Z,76.73
2022-10-19T05:43:24.266Z,77.71
2022-10-19T05:44:24.365Z,76.39
2022-10-19T05:45:24.238Z,75.83
2022-10-19T05:46:24.213Z,77.55
2022-10-19T05:47:27.330Z,76.07
2022-10-19T05:48:26.174Z,76.36
2022-10-19T05:49:24.183Z,76.79
2022-10-19T05:50:24.143Z,77.46
2022-10-19T05:51:24.122Z,77.55
2022-10-19T05:52:24.105Z,76.93
2022-10-19T05:53:24.084Z,75.81
2022-10-19T05:54:26.363Z,78.26
2022-10-19T05:55:24.050Z,76.22
2022-10-19T05:56:24.028Z,76.35
2022-10-19T05:57:24.012Z,76.67
2022-10-19T05:58:23.995Z,76.53
2022-10-19T05:59:24.006Z,76.84
2022-10-19T06:00:24.039Z,77.22
2022-10-19T06:01:23.939Z,76.19
2022-10-19T06:02:23.923Z,77.18
2022-10-19T06:03:23.904Z,77.75
2022-10-19T06:04:23.919Z,76.06
2022-10-19T06:05:23.863Z,77.92
2022-10-19T06:06:23.853Z,77.10
2022-10-19T06:07:23.849Z,76.45
2022-10-19T06:08:23.811Z,74.61
2022-10-19T06:09:23.826Z,77.08
2022-10-19T06:10:23.778Z,76.90
2022-10-19T06:11:23.763Z,77.11
2022-10-19T06:12:25.122Z,74.04
2022-10-19T06:13:23.721Z,76.27
2022-10-19T06:14:23.709Z,74.32
2022-10-19T06:15:23.717Z,76.16
2022-10-19T06:16:23.669Z,75.94
2022-10-19T06:17:23.652Z,77.82
2022-10-19T06:18:23.635Z,77.09
2022-10-19T06:19:23.617Z,76.91
2022-10-19T06:20:23.623Z,76.38
2022-10-19T06:21:23.583Z,75.83
2022-10-19T06:22:23.564Z,76.05
2022-10-19T06:23:23.543Z,75.23
2022-10-19T06:24:23.528Z,77.91
2022-10-19T06:25:23.546Z,76.54
2022-10-19T06:26:23.496Z,76.92
2022-10-19T06:27:23.506Z,75.70
2022-10-19T06:28:23.462Z,75.48
2022-10-19T06:29:23.442Z,76.71
2022-10-19T06:30:23.527Z,76.38
2022-10-19T06:31:23.412Z,75.37
2022-10-19T06:32:23.392Z,77.11
2022-10-19T06:33:23.379Z,77.05
2022-10-19T06:34:23.534Z,76.06
2022-10-19T06:35:23.362Z,75.72
2022-10-19T06:36:23.331Z,75.26
2022-10-19T06:37:23.299Z,76.68
2022-10-19T06:38:23.281Z,76.52
2022-10-19T06:39:23.267Z,76.85
2022-10-19T06:40:23.316Z,76.28
2022-10-19T06:41:23.357Z,76.10
2022-10-19T06:42:23.209Z,75.89
2022-10-19T06:43:23.194Z,76.57
2022-10-19T06:44:23.171Z,75.58
2022-10-19T06:45:23.191Z,76.40
2022-10-19T06:46:23.147Z,75.00
2022-10-19T06:47:23.120Z,75.78
2022-10-19T06:48:23.106Z,74.78
2022-10-19T06:49:23.083Z,75.11
2022-10-19T06:50:23.091Z,76.95
2022-10-19T06:51:23.043Z,75.78
2022-10-19T06:52:23.020Z,74.45
2022-10-19T06:53:23.011Z,74.92
2022-10-19T06:54:22.976Z,76.95
2022-10-19T06:55:22.988Z,74.73
2022-10-19T06:56:22.935Z,75.07
2022-10-19T06:57:22.916Z,73.98
2022-10-19T06:58:22.899Z,75.16
2022-10-19T06:59:22.877Z,76.46
2022-10-19T07:00:22.887Z,76.25
2022-10-19T07:01:22.952Z,76.52
2022-10-19T07:02:22.818Z,75.95
2022-10-19T07:03:22.802Z,74.72
2022-10-19T07:04:22.772Z,75.79
2022-10-19T07:05:22.782Z,76.04
2022-10-19T07:06:22.760Z,76.05
2022-10-19T07:07:22.872Z,76.69
2022-10-19T07:08:22.692Z,74.05
2022-10-19T07:09:22.669Z,75.09
2022-10-19T07:10:22.679Z,74.39
2022-10-19T07:11:22.806Z,76.41
2022-10-19T07:12:22.605Z,77.02
2022-10-19T07:13:22.586Z,75.48
2022-10-19T07:14:22.562Z,71.06
2022-10-19T07:15:22.566Z,76.63
2022-10-19T07:16:22.530Z,77.06
2022-10-19T07:17:22.497Z,74.61
2022-10-19T07:18:22.473Z,74.41
2022-10-19T07:19:22.452Z,73.43
2022-10-19T07:20:22.457Z,74.49
2022-10-19T07:21:22.420Z,75.32
2022-10-19T07:22:27.857Z,75.44
2022-10-19T07:23:24.361Z,75.10
2022-10-19T07:24:22.346Z,74.53
2022-10-19T07:25:22.349Z,74.66
2022-10-19T07:26:22.321Z,74.55
2022-10-19T07:27:22.273Z,75.81
2022-10-19T07:28:22.246Z,74.48
2022-10-19T07:29:22.223Z,75.15
2022-10-19T07:30:22.231Z,75.11
2022-10-19T07:31:22.182Z,73.82
2022-10-19T07:32:22.158Z,74.62
2022-10-19T07:33:22.138Z,76.43
2022-10-19T07:34:24.244Z,76.28
2022-10-19T07:35:23.120Z,75.55
2022-10-19T07:36:22.075Z,75.41
2022-10-19T07:37:22.051Z,74.56
2022-10-19T07:38:22.031Z,75.27
2022-10-19T07:39:22.015Z,73.78
2022-10-19T07:40:22.057Z,73.27
2022-10-19T07:41:21.968Z,74.50
2022-10-19T07:43:22.930Z,72.99
2022-10-19T07:44:21.913Z,73.51
2022-10-19T07:45:21.925Z,73.96
2022-10-19T07:46:21.873Z,73.74
2022-10-19T07:47:21.860Z,75.23
2022-10-19T07:48:21.837Z,75.45
2022-10-19T07:49:21.833Z,75.21
2022-10-19T07:50:21.830Z,74.81
2022-10-19T07:51:21.819Z,73.60
2022-10-19T07:52:21.764Z,75.49
2022-10-19T07:53:21.740Z,74.11
2022-10-19T07:54:21.721Z,75.92
2022-10-19T07:55:21.731Z,75.77
2022-10-19T07:56:21.688Z,74.70
2022-10-19T07:57:21.672Z,73.33
2022-10-19T07:58:21.648Z,74.77
2022-10-19T07:59:21.625Z,74.02
2022-10-19T08:00:21.635Z,73.75
2022-10-19T08:01:21.585Z,72.94
2022-10-19T08:02:21.914Z,75.49
2022-10-19T08:05:23.649Z,73.08
2022-10-19T08:06:21.499Z,74.70
2022-10-19T08:07:21.480Z,74.97
2022-10-19T08:08:21.461Z,73.94
2022-10-19T08:09:51.387Z,74.68
2022-10-19T08:10:23.457Z,76.42
2022-10-19T08:11:21.404Z,73.92
2022-10-19T08:12:22.036Z,73.58
2022-10-19T08:13:21.365Z,73.54
2022-10-19T08:14:21.352Z,73.69
2022-10-19T08:15:21.354Z,73.96
2022-10-19T08:16:21.309Z,73.04
2022-10-19T08:17:21.290Z,74.77
2022-10-19T08:18:21.266Z,74.05
2022-10-19T08:19:21.254Z,74.02
2022-10-19T08:20:21.327Z,74.19
2022-10-19T08:21:21.207Z,73.09
2022-10-19T08:22:21.188Z,74.60
2022-10-19T08:23:21.185Z,73.71
2022-10-19T08:24:21.155Z,75.92
2022-10-19T08:25:21.173Z,73.74
2022-10-19T08:26:21.113Z,74.70
2022-10-19T08:27:21.112Z,75.48
2022-10-19T08:28:21.077Z,74.20
2022-10-19T08:29:21.059Z,73.53
2022-10-19T08:30:21.137Z,75.30
2022-10-19T08:31:21.026Z,75.57
2022-10-19T08:32:21.003Z,74.17
2022-10-19T08:33:20.990Z,74.67
2022-10-19T08:34:20.967Z,74.88
2022-10-19T08:35:20.971Z,73.40
2022-10-19T08:36:20.926Z,75.73
2022-10-19T08:37:40.181Z,74.92
2022-10-19T08:38:21.887Z,75.08
2022-10-19T08:39:20.869Z,74.63
2022-10-19T08:40:20.909Z,75.51
2022-10-19T08:41:20.830Z,75.24
2022-10-19T08:42:20.817Z,76.16
2022-10-19T08:43:20.797Z,75.27
2022-10-19T08:44:20.781Z,74.66
2022-10-19T08:45:20.788Z,76.66
2022-10-19T08:46:20.741Z,75.31
2022-10-19T08:47:23.202Z,73.45
2022-10-19T08:48:21.704Z,77.13
2022-10-19T08:49:20.682Z,74.37
2022-10-19T08:50:20.781Z,75.53
2022-10-19T08:51:20.647Z,76.35
2022-10-19T08:52:20.630Z,75.93
2022-10-19T08:53:20.610Z,77.36
2022-10-19T08:54:20.590Z,75.54
2022-10-19T08:55:20.805Z,77.27
2022-10-19T08:56:38.794Z,76.77
2022-10-19T08:57:22.539Z,76.45
2022-10-19T08:58:20.518Z,76.82
2022-10-19T08:59:20.495Z,74.45
2022-10-19T09:00:20.546Z,76.10
2022-10-19T09:01:20.462Z,76.27
2022-10-19T09:02:20.442Z,77.28
2022-10-19T09:03:37.414Z,77.77
2022-10-19T09:04:21.400Z,76.55
2022-10-19T09:05:20.409Z,74.66
2022-10-19T09:06:20.370Z,77.20
2022-10-19T09:07:20.347Z,74.94
2022-10-19T09:08:20.331Z,76.84
2022-10-19T09:09:20.306Z,75.69
2022-10-19T09:10:20.413Z,76.20
2022-10-19T09:11:20.270Z,76.86
2022-10-19T09:12:20.252Z,77.47
2022-10-19T09:13:20.230Z,77.90
2022-10-19T09:14:20.212Z,74.25
2022-10-19T09:15:20.219Z,76.97
2022-10-19T09:16:20.175Z,75.73
2022-10-19T09:17:20.156Z,75.41
2022-10-19T09:18:20.140Z,76.32
2022-10-19T09:19:20.128Z,76.52
2022-10-19T09:20:20.132Z,75.07
2022-10-19T09:21:20.083Z,76.22
2022-10-19T09:22:20.066Z,76.92
2022-10-19T09:23:20.043Z,75.27
2022-10-19T09:24:20.028Z,78.03
2022-10-19T09:25:20.040Z,74.90
2022-10-19T09:26:19.989Z,75.27
2022-10-19T09:27:19.971Z,77.55
2022-10-19T09:28:19.961Z,76.50
2022-10-19T09:29:19.935Z,75.93
2022-10-19T09:30:19.947Z,75.80
2022-10-19T09:31:19.899Z,76.46
2022-10-19T09:32:19.881Z,75.68
2022-10-19T09:33:19.858Z,73.76
2022-10-19T09:34:19.844Z,72.76
2022-10-19T09:35:19.848Z,76.96
2022-10-19T09:36:23.023Z,75.70
2022-10-19T09:37:25.956Z,77.23
2022-10-19T09:38:20.767Z,75.29
2022-10-19T09:39:19.749Z,76.32
2022-10-19T09:40:19.756Z,74.73
2022-10-19T09:41:19.714Z,75.23
2022-10-19T09:42:19.693Z,76.50
2022-10-19T09:43:19.693Z,77.10
2022-10-19T09:44:19.656Z,75.77
2022-10-19T09:45:19.667Z,75.40
2022-10-19T09:46:20.457Z,77.23
2022-10-19T09:47:20.597Z,74.42
2022-10-19T09:48:19.581Z,77.17
2022-10-19T09:49:19.560Z,74.95
2022-10-19T09:50:19.567Z,75.33
2022-10-19T09:51:19.529Z,74.77
2022-10-19T09:52:19.507Z,76.13
2022-10-19T09:53:19.490Z,73.97
2022-10-19T09:54:19.465Z,77.05
2022-10-19T09:55:19.475Z,76.28
2022-10-19T09:56:19.428Z,76.25
2022-10-19T09:57:19.411Z,76.61
2022-10-19T09:58:19.388Z,77.10
2022-10-19T09:59:19.370Z,75.64
2022-10-19T10:00:19.376Z,77.85
2022-10-19T10:01:19.336Z,76.33
2022-10-19T10:02:19.316Z,75.76
2022-10-19T10:03:19.292Z,77.20
2022-10-19T10:04:19.272Z,77.54
2022-10-19T10:05:19.279Z,75.40
2022-10-19T10:06:19.238Z,76.92
2022-10-19T10:07:19.216Z,76.80
2022-10-19T10:08:19.196Z,75.76
2022-10-19T10:09:19.177Z,75.71
2022-10-19T10:10:19.181Z,77.37
2022-10-19T10:11:19.134Z,75.59
2022-10-19T10:12:19.124Z,76.98
2022-10-19T10:13:19.097Z,76.71
2022-10-19T10:14:19.075Z,75.23
2022-10-19T10:15:19.083Z,77.21
2022-10-19T10:16:19.037Z,77.45
2022-10-19T10:17:19.018Z,76.35
2022-10-19T10:18:18.997Z,77.65
2022-10-19T10:19:18.971Z,76.71
2022-10-19T10:20:18.979Z,78.02
2022-10-19T10:21:25.207Z,75.99
2022-10-19T10:22:20.911Z,74.75
2022-10-19T10:23:18.894Z,77.71
2022-10-19T10:24:18.868Z,77.89
2022-10-19T10:25:18.875Z,77.41
2022-10-19T10:26:18.825Z,76.82
2022-10-19T10:27:18.802Z,76.07
2022-10-19T10:28:18.776Z,75.05
2022-10-19T10:29:18.754Z,76.09
2022-10-19T10:30:18.736Z,76.11
2022-10-19T10:31:18.740Z,74.04
2022-10-19T10:32:18.692Z,77.20
2022-10-19T10:33:33.344Z,78.07
2022-10-19T10:34:28.616Z,76.56
2022-10-19T10:35:20.630Z,76.54
2022-10-19T10:36:18.634Z,76.63
2022-10-19T10:37:18.587Z,76.17
2022-10-19T10:38:18.563Z,76.84
2022-10-19T10:39:18.542Z,76.41
2022-10-19T10:40:21.316Z,76.34
2022-10-19T10:41:19.522Z,75.91
2022-10-19T10:42:18.474Z,73.74
2022-10-19T10:43:18.450Z,77.50
2022-10-19T10:44:18.419Z,79.11
2022-10-19T10:45:19.407Z,77.96
2022-10-19T10:46:18.410Z,76.97
2022-10-19T10:47:18.365Z,76.60
2022-10-19T10:48:18.346Z,76.96
2022-10-19T10:49:18.318Z,76.05
2022-10-19T10:50:18.297Z,76.99
2022-10-19T10:51:18.298Z,77.68
2022-10-19T10:52:18.253Z,75.27
2022-10-19T10:53:18.230Z,76.62
2022-10-19T10:54:18.216Z,77.22
2022-10-19T10:55:18.185Z,76.04
2022-10-19T10:56:18.192Z,76.68
2022-10-19T10:57:18.171Z,77.32
2022-10-19T10:58:18.113Z,74.62
2022-10-19T10:59:18.096Z,75.66
2022-10-19T11:00:18.070Z,75.15
2022-10-19T11:01:18.117Z,75.31
2022-10-19T11:02:18.123Z,74.50
2022-10-19T11:03:18.008Z,75.84
2022-10-19T11:04:17.987Z,77.39
2022-10-19T11:05:17.962Z,77.81
2022-10-19T11:06:18.020Z,77.61
2022-10-19T11:07:17.925Z,76.49
2022-10-19T11:08:17.898Z,74.54
2022-10-19T11:09:17.873Z,77.12
2022-10-19T11:10:17.858Z,77.01
2022-10-19T11:11:17.863Z,76.68
2022-10-19T11:12:17.812Z,76.11
2022-10-19T11:13:17.795Z,76.65
2022-10-19T11:14:17.786Z,76.18
2022-10-19T11:15:17.820Z,76.72
2022-10-19T11:16:17.773Z,76.59
2022-10-19T11:17:17.709Z,76.98
2022-10-19T11:18:17.695Z,77.46
2022-10-19T11:19:17.699Z,77.65
2022-10-19T11:20:17.655Z,77.25
2022-10-19T11:21:17.676Z,76.41
2022-10-19T11:22:17.611Z,77.37
2022-10-19T11:23:17.605Z,76.24
2022-10-19T11:24:17.596Z,78.78
2022-10-19T11:25:17.576Z,77.66
2022-10-19T11:26:17.537Z,75.55
2022-10-19T11:27:17.509Z,78.13
2022-10-19T11:28:17.510Z,77.11
2022-10-19T11:29:17.470Z,78.10
2022-10-19T11:30:17.452Z,76.96
2022-10-19T11:31:17.454Z,77.82
2022-10-19T11:32:17.416Z,77.49
2022-10-19T11:33:17.386Z,76.79
2022-10-19T11:34:18.042Z,78.41
2022-10-19T11:35:17.348Z,78.36
2022-10-19T11:36:17.352Z,77.30
2022-10-19T11:37:17.305Z,77.92
2022-10-19T11:38:21.161Z,77.18
2022-10-19T11:39:19.262Z,75.47
2022-10-19T11:40:21.862Z,76.81
2022-10-19T11:41:19.523Z,77.29
2022-10-19T11:42:18.206Z,76.15
2022-10-19T11:43:17.182Z,76.15
2022-10-19T11:44:17.175Z,75.51
2022-10-19T11:45:17.146Z,77.20
2022-10-19T11:46:17.149Z,74.98
2022-10-19T11:47:17.103Z,76.21
2022-10-19T11:48:17.081Z,77.21
2022-10-19T11:49:17.062Z,76.19
2022-10-19T11:50:17.044Z,76.83
2022-10-19T11:51:21.495Z,76.24
2022-10-19T11:52:19.003Z,76.15
2022-10-19T11:53:16.980Z,75.43
2022-10-19T11:54:17.037Z,76.34
2022-10-19T11:55:16.945Z,75.21
2022-10-19T11:56:16.950Z,77.40
2022-10-19T11:57:16.904Z,76.37
2022-10-19T11:58:16.882Z,74.05
2022-10-19T11:59:16.865Z,75.94
2022-10-19T12:00:37.746Z,76.26
2022-10-19T12:01:19.134Z,76.36
2022-10-19T12:02:16.855Z,75.90
2022-10-19T12:03:16.780Z,75.92
2022-10-19T12:04:16.770Z,76.58
2022-10-19T12:05:16.741Z,75.66
2022-10-19T12:06:16.745Z,77.96
2022-10-19T12:07:17.695Z,77.76
2022-10-19T12:08:16.726Z,78.44
2022-10-19T12:09:16.692Z,78.37
2022-10-19T12:10:16.654Z,76.58
2022-10-19T12:11:16.604Z,77.74
2022-10-19T12:12:16.586Z,76.73
2022-10-19T12:13:16.563Z,76.65
2022-10-19T12:14:16.548Z,77.12
2022-10-19T12:15:16.550Z,78.25
2022-10-19T12:16:16.499Z,77.56
2022-10-19T12:17:16.482Z,78.44
2022-10-19T12:18:16.458Z,77.92
2022-10-19T12:19:16.444Z,77.49
2022-10-19T12:20:19.021Z,77.32
2022-10-19T12:21:16.403Z,73.51
2022-10-19T12:22:16.382Z,74.55
2022-10-19T12:23:16.351Z,75.77
2022-10-19T12:24:16.328Z,76.27
2022-10-19T12:25:16.341Z,75.77
2022-10-19T12:26:16.322Z,77.94
2022-10-19T12:27:16.277Z,76.64
2022-10-19T12:28:16.246Z,77.36
2022-10-19T12:29:16.223Z,76.60
2022-10-19T12:30:16.231Z,78.36
2022-10-19T12:31:16.179Z,76.52
2022-10-19T12:32:16.168Z,77.33
2022-10-19T12:33:16.234Z,77.55
2022-10-19T12:34:16.116Z,78.22
2022-10-19T12:35:16.153Z,76.47
2022-10-19T12:36:16.075Z,77.56
2022-10-19T12:37:16.051Z,76.17
2022-10-19T12:38:16.028Z,76.78
2022-10-19T12:39:16.011Z,78.60
2022-10-19T12:40:16.014Z,77.14
2022-10-19T12:41:15.973Z,77.90
2022-10-19T12:42:15.948Z,75.53
2022-10-19T12:43:15.930Z,75.62
2022-10-19T12:44:15.943Z,74.90
2022-10-19T12:45:15.914Z,74.40
2022-10-19T12:46:15.873Z,76.35
2022-10-19T12:47:15.851Z,77.74
2022-10-19T12:48:15.828Z,77.48
2022-10-19T12:49:15.808Z,78.09
2022-10-19T12:50:15.876Z,76.60
2022-10-19T12:51:15.772Z,76.69
2022-10-19T12:52:15.750Z,76.19
2022-10-19T12:53:15.790Z,78.57
2022-10-19T12:54:15.710Z,77.07
2022-10-19T12:55:15.719Z,77.23
2022-10-19T12:56:15.662Z,77.70